Time,TemperatureF,DewpointF,PressureIn,WindDirection,WindDirectionDegrees,WindSpeedMPH,WindSpeedGustMPH,Humidity,HourlyPrecipIn,Conditions,Clouds,dailyrainin,SoftwareType,DateUTC
2013-03-14 00:00:00,34.5,24.3,29.91,WNW,290,1.0,15.0,66,0.00,,,0.00,VWS V14.01,2013-03-14 04:00:00,
2013-03-14 00:05:00,34.5,21.3,29.91,West,269,9.0,22.0,58,0.00,,,0.00,VWS V14.01,2013-03-14 04:05:00,
2013-03-14 00:10:00,34.3,21.1,29.91,West,274,6.0,22.0,58,0.00,,,0.00,VWS V14.01,2013-03-14 04:10:00,
2013-03-14 00:15:00,34.2,20.6,29.91,West,265,1.0,22.0,57,0.00,,,0.00,VWS V14.01,2013-03-14 04:15:00,
2013-03-14 00:20:00,34.0,20.8,29.91,West,261,4.0,9.0,58,0.00,,,0.00,VWS V14.01,2013-03-14 04:20:00,
2013-03-14 00:25:00,33.9,21.1,29.91,West,271,4.0,10.0,59,0.00,,,0.00,VWS V14.01,2013-03-14 04:25:00,
2013-03-14 00:30:00,33.4,20.2,29.91,WSW,240,5.0,11.0,58,0.00,,,0.00,VWS V14.01,2013-03-14 04:30:00,
2013-03-14 00:35:00,33.1,19.5,29.91,WSW,253,10.0,15.0,57,0.00,,,0.00,VWS V14.01,2013-03-14 04:35:00,
2013-03-14 00:40:00,32.8,18.8,29.91,West,273,10.0,15.0,56,0.00,,,0.00,VWS V14.01,2013-03-14 04:40:00,
2013-03-14 00:45:00,32.7,18.8,29.92,West,270,6.0,15.0,56,0.00,,,0.00,VWS V14.01,2013-03-14 04:45:00,
2013-03-14 00:50:00,32.6,18.7,29.92,West,271,8.0,12.0,56,0.00,,,0.00,VWS V14.01,2013-03-14 04:50:00,
2013-03-14 00:55:00,32.6,19.1,29.92,WNW,292,7.0,12.0,57,0.00,,,0.00,VWS V14.01,2013-03-14 04:55:00,
2013-03-14 01:00:00,32.6,18.7,29.91,West,267,10.0,16.0,56,0.00,,,0.00,VWS V14.01,2013-03-14 05:00:00,
2013-03-14 01:05:00,32.6,18.7,29.91,West,269,0.0,13.0,56,0.00,,,0.00,VWS V14.01,2013-03-14 05:05:00,
2013-03-14 01:10:00,32.6,18.7,29.91,WSW,256,10.0,14.0,56,0.00,,,0.00,VWS V14.01,2013-03-14 05:10:00,
2013-03-14 01:15:00,32.6,18.7,29.91,West,277,12.0,15.0,56,0.00,,,0.00,VWS V14.01,2013-03-14 05:15:00,
2013-03-14 01:20:00,32.6,18.7,29.91,WNW,288,7.0,16.0,56,0.00,,,0.00,VWS V14.01,2013-03-14 05:20:00,
2013-03-14 01:25:00,32.6,19.1,29.91,WNW,298,0.0,16.0,57,0.00,,,0.00,VWS V14.01,2013-03-14 05:25:00,
2013-03-14 01:30:00,32.6,19.1,29.92,WNW,290,5.0,16.0,57,0.00,,,0.00,VWS V14.01,2013-03-14 05:30:00,
2013-03-14 01:35:00,32.4,18.9,29.92,WSW,243,13.0,14.0,57,0.00,,,0.00,VWS V14.01,2013-03-14 05:35:00,
2013-03-14 01:40:00,32.4,18.9,29.92,West,261,7.0,14.0,57,0.00,,,0.00,VWS V14.01,2013-03-14 05:40:00,
2013-03-14 01:45:00,32.4,18.9,29.92,NW,306,8.0,16.0,57,0.00,,,0.00,VWS V14.01,2013-03-14 05:45:00,
2013-03-14 01:50:00,32.3,18.8,29.92,West,275,0.0,14.0,57,0.00,,,0.00,VWS V14.01,2013-03-14 05:50:00,
2013-03-14 01:55:00,32.3,18.8,29.92,SW,229,7.0,14.0,57,0.00,,,0.00,VWS V14.01,2013-03-14 05:55:00,
2013-03-14 02:00:00,32.3,18.8,29.92,West,265,9.0,14.0,57,0.00,,,0.00,VWS V14.01,2013-03-14 06:00:00,
2013-03-14 02:05:00,32.1,18.6,29.92,SW,217,14.0,19.0,57,0.00,,,0.00,VWS V14.01,2013-03-14 06:05:00,
2013-03-14 02:10:00,32.1,18.6,29.92,West,272,14.0,19.0,57,0.00,,,0.00,VWS V14.01,2013-03-14 06:10:00,
2013-03-14 02:15:00,32.0,18.9,29.92,West,280,5.0,19.0,58,0.00,,,0.00,VWS V14.01,2013-03-14 06:15:00,
2013-03-14 02:20:00,31.8,19.1,29.92,NNW,333,9.0,18.0,59,0.00,,,0.00,VWS V14.01,2013-03-14 06:20:00,
2013-03-14 02:25:00,31.7,20.2,29.92,West,275,10.0,18.0,62,0.00,,,0.00,VWS V14.01,2013-03-14 06:25:00,
2013-03-14 02:30:00,31.2,20.5,29.92,WNW,285,6.0,18.0,64,0.00,,,0.00,VWS V14.01,2013-03-14 06:30:00,
2013-03-14 02:34:00,31.1,19.6,29.92,West,275,10.0,13.0,62,0.00,,,0.00,VWS V14.01,2013-03-14 06:34:00,
2013-03-14 02:39:00,31.1,19.2,29.92,WNW,288,10.0,14.0,61,0.00,,,0.00,VWS V14.01,2013-03-14 06:39:00,
2013-03-14 02:44:00,30.9,18.7,29.93,West,271,11.0,19.0,60,0.00,,,0.00,VWS V14.01,2013-03-14 06:44:00,
2013-03-14 02:45:00,30.9,18.3,29.93,West,275,9.0,19.0,59,0.00,,,0.00,VWS V14.01,2013-03-14 06:45:00,
2013-03-14 02:49:00,30.8,17.8,29.93,NW,306,6.0,12.0,58,0.00,,,0.00,VWS V14.01,2013-03-14 06:49:00,
2013-03-14 02:54:00,30.6,17.2,29.93,WSW,244,9.0,22.0,57,0.00,,,0.00,VWS V14.01,2013-03-14 06:54:00,
2013-03-14 02:59:00,30.5,17.1,29.93,SW,226,10.0,22.0,57,0.00,,,0.00,VWS V14.01,2013-03-14 06:59:00,
2013-03-14 03:00:00,30.5,17.1,29.93,WSW,253,8.0,22.0,57,0.00,,,0.00,VWS V14.01,2013-03-14 07:00:00,
2013-03-14 03:04:00,30.3,16.1,29.93,WNW,302,0.0,18.0,55,0.00,,,0.00,VWS V14.01,2013-03-14 07:04:00,
2013-03-14 03:09:00,30.3,15.2,29.93,West,279,11.0,18.0,53,0.00,,,0.00,VWS V14.01,2013-03-14 07:09:00,
2013-03-14 03:14:00,30.2,15.6,29.93,West,273,7.0,18.0,54,0.00,,,0.00,VWS V14.01,2013-03-14 07:14:00,
2013-03-14 03:15:00,30.2,15.6,29.93,NW,315,2.0,18.0,54,0.00,,,0.00,VWS V14.01,2013-03-14 07:15:00,
2013-03-14 03:19:00,30.0,14.5,29.93,WSW,242,5.0,16.0,52,0.00,,,0.00,VWS V14.01,2013-03-14 07:19:00,
2013-03-14 03:24:00,29.9,12.6,29.93,West,261,8.0,21.0,48,0.00,,,0.00,VWS V14.01,2013-03-14 07:24:00,
2013-03-14 03:29:00,29.9,12.6,29.93,WNW,282,6.0,21.0,48,0.00,,,0.00,VWS V14.01,2013-03-14 07:29:00,
2013-03-14 03:30:00,29.7,12.4,29.93,West,263,7.0,21.0,48,0.00,,,0.00,VWS V14.01,2013-03-14 07:30:00,
2013-03-14 03:34:00,29.7,12.4,29.93,NE,55,6.0,12.0,48,0.00,,,0.00,VWS V14.01,2013-03-14 07:34:00,
2013-03-14 03:39:00,29.6,11.9,29.93,West,259,0.0,13.0,47,0.00,,,0.00,VWS V14.01,2013-03-14 07:39:00,
2013-03-14 03:44:00,29.4,11.7,29.93,SE,145,9.0,13.0,47,0.00,,,0.00,VWS V14.01,2013-03-14 07:44:00,
2013-03-14 03:45:00,29.4,11.7,29.92,NNW,345,5.0,13.0,47,0.00,,,0.00,VWS V14.01,2013-03-14 07:45:00,
2013-03-14 03:49:00,29.3,11.6,29.92,WSW,239,4.0,8.0,47,0.00,,,0.00,VWS V14.01,2013-03-14 07:49:00,
2013-03-14 03:54:00,29.2,11.5,29.92,WNW,299,0.0,12.0,47,0.00,,,0.00,VWS V14.01,2013-03-14 07:54:00,
2013-03-14 03:59:00,29.2,11.5,29.92,WNW,287,0.0,15.0,47,0.00,,,0.00,VWS V14.01,2013-03-14 07:59:00,
2013-03-14 04:00:00,29.2,11.0,29.92,NW,313,2.0,15.0,46,0.00,,,0.00,VWS V14.01,2013-03-14 08:00:00,
2013-03-14 04:04:00,29.2,12.0,29.92,WNW,288,8.0,8.0,48,0.00,,,0.00,VWS V14.01,2013-03-14 08:04:00,
2013-03-14 04:09:00,29.0,11.8,29.92,WNW,286,0.0,8.0,48,0.00,,,0.00,VWS V14.01,2013-03-14 08:09:00,
2013-03-14 04:14:00,29.0,11.8,29.92,West,281,8.0,9.0,48,0.00,,,0.00,VWS V14.01,2013-03-14 08:14:00,
2013-03-14 04:15:00,29.0,11.8,29.92,West,277,4.0,9.0,48,0.00,,,0.00,VWS V14.01,2013-03-14 08:15:00,
2013-03-14 04:19:00,29.0,12.7,29.92,WSW,252,7.0,11.0,50,0.00,,,0.00,VWS V14.01,2013-03-14 08:19:00,
2013-03-14 04:24:00,29.2,11.5,29.92,WSW,239,9.0,20.0,47,0.00,,,0.00,VWS V14.01,2013-03-14 08:24:00,
2013-03-14 04:29:00,29.2,11.5,29.92,West,265,6.0,20.0,47,0.00,,,0.00,VWS V14.01,2013-03-14 08:29:00,
2013-03-14 04:30:00,29.2,11.5,29.92,WSW,246,7.0,20.0,47,0.00,,,0.00,VWS V14.01,2013-03-14 08:30:00,
2013-03-14 04:34:00,29.2,11.5,29.92,WSW,238,4.0,14.0,47,0.00,,,0.00,VWS V14.01,2013-03-14 08:34:00,
2013-03-14 04:39:00,29.0,11.8,29.92,West,274,10.0,16.0,48,0.00,,,0.00,VWS V14.01,2013-03-14 08:39:00,
2013-03-14 04:44:00,29.0,12.2,29.92,WNW,286,11.0,16.0,49,0.00,,,0.00,VWS V14.01,2013-03-14 08:44:00,
2013-03-14 04:45:00,28.9,12.1,29.91,SW,229,2.0,16.0,49,0.00,,,0.00,VWS V14.01,2013-03-14 08:45:00,
2013-03-14 04:49:00,28.9,12.1,29.91,WNW,288,2.0,11.0,49,0.00,,,0.00,VWS V14.01,2013-03-14 08:49:00,
2013-03-14 04:54:00,28.9,12.6,29.91,West,259,10.0,12.0,50,0.00,,,0.00,VWS V14.01,2013-03-14 08:54:00,
2013-03-14 04:59:00,28.9,12.6,29.91,West,279,9.0,15.0,50,0.00,,,0.00,VWS V14.01,2013-03-14 08:59:00,
2013-03-14 05:00:00,28.9,12.6,29.92,West,267,9.0,15.0,50,0.00,,,0.00,VWS V14.01,2013-03-14 09:00:00,
2013-03-14 05:04:00,28.7,12.9,29.92,SW,232,6.0,12.0,51,0.00,,,0.00,VWS V14.01,2013-03-14 09:04:00,
2013-03-14 05:09:00,28.7,12.9,29.92,West,269,2.0,14.0,51,0.00,,,0.00,VWS V14.01,2013-03-14 09:09:00,
2013-03-14 05:14:00,28.6,13.2,29.92,WNW,303,4.0,14.0,52,0.00,,,0.00,VWS V14.01,2013-03-14 09:14:00,
2013-03-14 05:15:00,28.6,13.6,29.92,WNW,284,10.0,14.0,53,0.00,,,0.00,VWS V14.01,2013-03-14 09:15:00,
2013-03-14 05:19:00,28.6,13.6,29.92,West,271,0.0,10.0,53,0.00,,,0.00,VWS V14.01,2013-03-14 09:19:00,
2013-03-14 05:24:00,28.6,13.6,29.92,West,261,10.0,12.0,53,0.00,,,0.00,VWS V14.01,2013-03-14 09:24:00,
2013-03-14 05:29:00,28.6,14.1,29.92,West,279,7.0,12.0,54,0.00,,,0.00,VWS V14.01,2013-03-14 09:29:00,
2013-03-14 05:30:00,28.6,14.1,29.92,West,271,0.0,12.0,54,0.00,,,0.00,VWS V14.01,2013-03-14 09:30:00,
2013-03-14 05:34:00,28.6,14.5,29.92,West,265,6.0,16.0,55,0.00,,,0.00,VWS V14.01,2013-03-14 09:34:00,
2013-03-14 05:39:00,28.4,14.3,29.92,WSW,245,8.0,18.0,55,0.00,,,0.00,VWS V14.01,2013-03-14 09:39:00,
2013-03-14 05:44:00,28.4,14.7,29.92,NW,315,8.0,18.0,56,0.00,,,0.00,VWS V14.01,2013-03-14 09:44:00,
2013-03-14 05:45:00,28.4,14.7,29.92,WSW,246,6.0,18.0,56,0.00,,,0.00,VWS V14.01,2013-03-14 09:45:00,
2013-03-14 05:49:00,28.4,14.7,29.92,West,261,6.0,13.0,56,0.00,,,0.00,VWS V14.01,2013-03-14 09:49:00,
2013-03-14 05:54:00,28.4,15.1,29.92,West,278,6.0,13.0,57,0.00,,,0.00,VWS V14.01,2013-03-14 09:54:00,
2013-03-14 05:59:00,28.4,15.1,29.92,West,275,9.0,13.0,57,0.00,,,0.00,VWS V14.01,2013-03-14 09:59:00,
2013-03-14 06:00:00,28.4,15.1,29.93,WSW,254,3.0,13.0,57,0.00,,,0.00,VWS V14.01,2013-03-14 10:00:00,
2013-03-14 06:04:00,28.4,15.1,29.93,West,267,4.0,13.0,57,0.00,,,0.00,VWS V14.01,2013-03-14 10:04:00,
2013-03-14 06:09:00,28.4,14.7,29.93,WNW,286,4.0,14.0,56,0.00,,,0.00,VWS V14.01,2013-03-14 10:09:00,
2013-03-14 06:14:00,28.4,15.1,29.93,North,360,0.0,15.0,57,0.00,,,0.00,VWS V14.01,2013-03-14 10:14:00,
2013-03-14 06:15:00,28.4,16.7,29.93,West,267,13.0,18.0,61,0.00,,,0.00,VWS V14.01,2013-03-14 10:15:00,
2013-03-14 06:19:00,28.4,14.7,29.93,WNW,293,5.0,16.0,56,0.00,,,0.00,VWS V14.01,2013-03-14 10:19:00,
2013-03-14 06:24:00,28.6,14.5,29.93,WNW,288,15.0,18.0,55,0.00,,,0.00,VWS V14.01,2013-03-14 10:24:00,
2013-03-14 06:29:00,28.6,14.5,29.93,WSW,251,5.0,18.0,55,0.00,,,0.00,VWS V14.01,2013-03-14 10:29:00,
2013-03-14 06:30:00,28.6,14.5,29.94,WNW,294,2.0,18.0,55,0.00,,,0.00,VWS V14.01,2013-03-14 10:30:00,
2013-03-14 06:34:00,28.6,14.5,29.94,North,355,7.0,16.0,55,0.00,,,0.00,VWS V14.01,2013-03-14 10:34:00,
2013-03-14 06:39:00,28.6,14.9,29.94,West,261,4.0,16.0,56,0.00,,,0.00,VWS V14.01,2013-03-14 10:39:00,
2013-03-14 06:44:00,28.4,14.7,29.94,WNW,296,5.0,16.0,56,0.00,,,0.00,VWS V14.01,2013-03-14 10:44:00,
2013-03-14 06:45:00,28.4,14.7,29.94,SW,232,7.0,16.0,56,0.00,,,0.00,VWS V14.01,2013-03-14 10:45:00,
2013-03-14 06:49:00,28.4,14.7,29.94,WNW,288,15.0,15.0,56,0.00,,,0.00,VWS V14.01,2013-03-14 10:49:00,
2013-03-14 06:54:00,28.4,14.7,29.94,NW,319,6.0,24.0,56,0.00,,,0.00,VWS V14.01,2013-03-14 10:54:00,
2013-03-14 06:59:00,28.3,13.8,29.94,WSW,252,10.0,24.0,54,0.00,,,0.00,VWS V14.01,2013-03-14 10:59:00,
2013-03-14 07:00:00,28.3,13.8,29.94,WSW,256,6.0,24.0,54,0.00,,,0.00,VWS V14.01,2013-03-14 11:00:00,
2013-03-14 07:04:00,28.3,13.8,29.94,WSW,250,15.0,16.0,54,0.00,,,0.00,VWS V14.01,2013-03-14 11:04:00,
2013-03-14 07:09:00,28.1,13.6,29.94,West,267,5.0,18.0,54,0.00,,,0.00,VWS V14.01,2013-03-14 11:09:00,
2013-03-14 07:14:00,28.1,13.6,29.94,WSW,237,10.0,23.0,54,0.00,,,0.00,VWS V14.01,2013-03-14 11:14:00,
2013-03-14 07:15:00,28.1,14.0,29.95,WNW,299,2.0,23.0,55,0.00,,,0.00,VWS V14.01,2013-03-14 11:15:00,
2013-03-14 07:19:00,28.1,15.6,29.95,NNE,29,0.0,7.0,59,0.00,,,0.00,VWS V14.01,2013-03-14 11:19:00,
2013-03-14 07:24:00,27.7,16.0,29.95,North,350,2.0,15.0,61,0.00,,,0.00,VWS V14.01,2013-03-14 11:24:00,
2013-03-14 07:29:00,27.4,16.5,29.95,NE,42,1.0,15.0,63,0.00,,,0.00,VWS V14.01,2013-03-14 11:29:00,
2013-03-14 07:30:00,27.4,16.5,29.95,WSW,241,7.0,15.0,63,0.00,,,0.00,VWS V14.01,2013-03-14 11:30:00,
2013-03-14 07:34:00,27.2,15.6,29.95,WNW,298,11.0,16.0,61,0.00,,,0.00,VWS V14.01,2013-03-14 11:34:00,
2013-03-14 07:39:00,27.1,14.3,29.95,WSW,257,10.0,20.0,58,0.00,,,0.00,VWS V14.01,2013-03-14 11:39:00,
2013-03-14 07:44:00,27.1,14.3,29.95,WSW,245,12.0,20.0,58,0.00,,,0.00,VWS V14.01,2013-03-14 11:44:00,
2013-03-14 07:45:00,27.1,14.7,29.97,West,279,12.0,20.0,59,0.00,,,0.00,VWS V14.01,2013-03-14 11:45:00,
2013-03-14 07:49:00,26.9,14.9,29.97,WSW,242,15.0,19.0,60,0.00,,,0.00,VWS V14.01,2013-03-14 11:49:00,
2013-03-14 07:54:00,26.8,15.2,29.97,West,272,8.0,19.0,61,0.00,,,0.00,VWS V14.01,2013-03-14 11:54:00,
2013-03-14 07:59:00,26.6,15.0,29.97,WNW,293,6.0,19.0,61,0.00,,,0.00,VWS V14.01,2013-03-14 11:59:00,
2013-03-14 08:00:00,26.6,15.0,29.97,SW,236,14.0,19.0,61,0.00,,,0.00,VWS V14.01,2013-03-14 12:00:00,
2013-03-14 08:04:00,26.5,14.1,29.97,SW,230,9.0,21.0,59,0.00,,,0.00,VWS V14.01,2013-03-14 12:04:00,
2013-03-14 08:09:00,26.3,13.9,29.97,West,262,11.0,21.0,59,0.00,,,0.00,VWS V14.01,2013-03-14 12:09:00,
2013-03-14 08:14:00,26.3,13.6,29.97,West,265,15.0,21.0,58,0.00,,,0.00,VWS V14.01,2013-03-14 12:14:00,
2013-03-14 08:15:00,26.3,13.1,29.98,WSW,257,12.0,21.0,57,0.00,,,0.00,VWS V14.01,2013-03-14 12:15:00,
2013-03-14 08:19:00,26.3,12.8,29.98,WSW,243,8.0,20.0,56,0.00,,,0.00,VWS V14.01,2013-03-14 12:19:00,
2013-03-14 08:24:00,26.3,12.8,29.98,SW,236,19.0,22.0,56,0.00,,,0.00,VWS V14.01,2013-03-14 12:24:00,
2013-03-14 08:29:00,26.3,12.3,29.98,WSW,244,11.0,22.0,55,0.00,,,0.00,VWS V14.01,2013-03-14 12:29:00,
2013-03-14 08:30:00,26.3,12.3,29.98,WNW,297,9.0,22.0,55,0.00,,,0.00,VWS V14.01,2013-03-14 12:30:00,
2013-03-14 08:34:00,26.3,12.3,29.98,West,273,11.0,16.0,55,0.00,,,0.00,VWS V14.01,2013-03-14 12:34:00,
2013-03-14 08:39:00,26.3,12.3,29.98,West,262,7.0,19.0,55,0.00,,,0.00,VWS V14.01,2013-03-14 12:39:00,
2013-03-14 08:44:00,26.3,12.8,29.98,WNW,285,7.0,21.0,56,0.00,,,0.00,VWS V14.01,2013-03-14 12:44:00,
2013-03-14 08:45:00,26.3,12.8,29.98,WSW,245,14.0,21.0,56,0.00,,,0.00,VWS V14.01,2013-03-14 12:45:00,
2013-03-14 08:49:00,26.5,12.9,29.98,WNW,290,7.0,21.0,56,0.00,,,0.00,VWS V14.01,2013-03-14 12:49:00,
2013-03-14 08:54:00,26.5,12.9,29.98,West,262,14.0,21.0,56,0.00,,,0.00,VWS V14.01,2013-03-14 12:54:00,
2013-03-14 08:59:00,26.5,12.9,29.98,West,272,8.0,21.0,56,0.00,,,0.00,VWS V14.01,2013-03-14 12:59:00,
2013-03-14 09:00:00,26.6,13.0,29.98,WSW,237,8.0,21.0,56,0.00,,,0.00,VWS V14.01,2013-03-14 13:00:00,
2013-03-14 09:04:00,26.6,13.0,29.98,WSW,245,8.0,18.0,56,0.00,,,0.00,VWS V14.01,2013-03-14 13:04:00,
2013-03-14 09:09:00,26.6,13.0,29.98,NW,311,9.0,18.0,56,0.00,,,0.00,VWS V14.01,2013-03-14 13:09:00,
2013-03-14 09:14:00,26.6,13.4,29.98,WNW,290,8.0,18.0,57,0.00,,,0.00,VWS V14.01,2013-03-14 13:14:00,
2013-03-14 09:15:00,26.8,13.2,29.98,SW,230,4.0,18.0,56,0.00,,,0.00,VWS V14.01,2013-03-14 13:15:00,
2013-03-14 09:19:00,26.9,13.3,29.98,WNW,286,6.0,16.0,56,0.00,,,0.00,VWS V14.01,2013-03-14 13:19:00,
2013-03-14 09:24:00,27.1,13.1,29.98,West,264,11.0,16.0,55,0.00,,,0.00,VWS V14.01,2013-03-14 13:24:00,
2013-03-14 09:29:00,27.2,12.8,29.98,WSW,248,5.0,16.0,54,0.00,,,0.00,VWS V14.01,2013-03-14 13:29:00,
2013-03-14 09:30:00,27.2,13.2,29.99,West,279,9.0,16.0,55,0.00,,,0.00,VWS V14.01,2013-03-14 13:30:00,
2013-03-14 09:34:00,27.4,13.0,29.99,West,265,8.0,10.0,54,0.00,,,0.00,VWS V14.01,2013-03-14 13:34:00,
2013-03-14 09:39:00,27.4,13.0,29.99,WNW,284,4.0,10.0,54,0.00,,,0.00,VWS V14.01,2013-03-14 13:39:00,
2013-03-14 09:43:00,27.4,12.5,29.99,West,270,0.0,10.0,53,0.00,,,0.00,VWS V14.01,2013-03-14 13:43:00,
2013-03-14 09:45:00,27.5,12.6,29.98,NNW,328,6.0,10.0,53,0.00,,,0.00,VWS V14.01,2013-03-14 13:45:00,
2013-03-14 09:48:00,27.5,12.6,29.98,SW,236,11.0,11.0,53,0.00,,,0.00,VWS V14.01,2013-03-14 13:48:00,
2013-03-14 09:53:00,27.7,11.9,29.98,West,262,14.0,15.0,51,0.00,,,0.00,VWS V14.01,2013-03-14 13:53:00,
2013-03-14 09:58:00,27.8,12.5,29.98,West,260,6.0,16.0,52,0.00,,,0.00,VWS V14.01,2013-03-14 13:58:00,
2013-03-14 10:00:00,28.0,12.7,29.98,WSW,238,10.0,16.0,52,0.00,,,0.00,VWS V14.01,2013-03-14 14:00:00,
2013-03-14 10:03:00,28.0,12.2,29.98,NW,325,0.0,21.0,51,0.00,,,0.00,VWS V14.01,2013-03-14 14:03:00,
2013-03-14 10:08:00,28.0,12.2,29.98,West,266,8.0,21.0,51,0.00,,,0.00,VWS V14.01,2013-03-14 14:08:00,
2013-03-14 10:13:00,27.8,12.5,29.98,WSW,256,6.0,22.0,52,0.00,,,0.00,VWS V14.01,2013-03-14 14:13:00,
2013-03-14 10:15:00,27.8,12.5,29.98,NW,306,2.0,22.0,52,0.00,,,0.00,VWS V14.01,2013-03-14 14:15:00,
2013-03-14 10:18:00,28.0,13.1,29.98,NW,312,5.0,10.0,53,0.00,,,0.00,VWS V14.01,2013-03-14 14:18:00,
2013-03-14 10:23:00,28.0,13.1,29.98,West,259,12.0,16.0,53,0.00,,,0.00,VWS V14.01,2013-03-14 14:23:00,
2013-03-14 10:28:00,28.0,13.9,29.98,West,275,11.0,16.0,55,0.00,,,0.00,VWS V14.01,2013-03-14 14:28:00,
2013-03-14 10:30:00,28.0,13.5,29.97,NW,312,4.0,16.0,54,0.00,,,0.00,VWS V14.01,2013-03-14 14:30:00,
2013-03-14 10:33:00,27.8,13.3,29.97,West,264,9.0,15.0,54,0.00,,,0.00,VWS V14.01,2013-03-14 14:33:00,
2013-03-14 10:38:00,28.3,13.8,29.97,WNW,300,13.0,15.0,54,0.00,,,0.00,VWS V14.01,2013-03-14 14:38:00,
2013-03-14 10:43:00,28.4,13.5,29.97,WNW,286,7.0,16.0,53,0.00,,,0.00,VWS V14.01,2013-03-14 14:43:00,
2013-03-14 10:45:00,28.3,13.4,29.98,West,265,3.0,18.0,53,0.00,,,0.00,VWS V14.01,2013-03-14 14:45:00,
2013-03-14 10:48:00,28.3,13.4,29.98,SW,236,9.0,18.0,53,0.00,,,0.00,VWS V14.01,2013-03-14 14:48:00,
2013-03-14 10:53:00,28.3,12.9,29.98,SSW,205,0.0,21.0,52,0.00,,,0.00,VWS V14.01,2013-03-14 14:53:00,
2013-03-14 10:58:00,28.6,12.8,29.98,SW,227,11.0,21.0,51,0.00,,,0.00,VWS V14.01,2013-03-14 14:58:00,
2013-03-14 11:00:00,28.6,13.2,29.97,West,277,5.0,21.0,52,0.00,,,0.00,VWS V14.01,2013-03-14 15:00:00,
2013-03-14 11:03:00,28.4,13.0,29.97,West,262,9.0,21.0,52,0.00,,,0.00,VWS V14.01,2013-03-14 15:03:00,
2013-03-14 11:08:00,28.7,13.8,29.97,West,272,14.0,21.0,53,0.00,,,0.00,VWS V14.01,2013-03-14 15:08:00,
2013-03-14 11:13:00,29.0,13.1,29.97,WNW,286,5.0,21.0,51,0.00,,,0.00,VWS V14.01,2013-03-14 15:13:00,
2013-03-14 11:15:00,29.2,12.9,29.97,NNW,329,1.0,21.0,50,0.00,,,0.00,VWS V14.01,2013-03-14 15:15:00,
2013-03-14 11:18:00,29.3,13.0,29.97,WSW,240,9.0,16.0,50,0.00,,,0.00,VWS V14.01,2013-03-14 15:18:00,
2013-03-14 11:23:00,29.3,13.9,29.97,WSW,254,13.0,16.0,52,0.00,,,0.00,VWS V14.01,2013-03-14 15:23:00,
2013-03-14 11:28:00,29.2,13.3,29.97,SSW,196,0.0,18.0,51,0.00,,,0.00,VWS V14.01,2013-03-14 15:28:00,
2013-03-14 11:30:00,29.4,13.1,29.97,SSE,159,10.0,18.0,50,0.00,,,0.00,VWS V14.01,2013-03-14 15:30:00,
2013-03-14 11:33:00,29.3,12.5,29.97,NNE,17,0.0,12.0,49,0.00,,,0.00,VWS V14.01,2013-03-14 15:33:00,
2013-03-14 11:38:00,29.3,12.5,29.97,SSW,211,7.0,19.0,49,0.00,,,0.00,VWS V14.01,2013-03-14 15:38:00,
2013-03-14 11:43:00,29.3,12.5,29.97,West,259,5.0,19.0,49,0.00,,,0.00,VWS V14.01,2013-03-14 15:43:00,
2013-03-14 11:45:00,29.3,13.0,29.97,West,262,4.0,19.0,50,0.00,,,0.00,VWS V14.01,2013-03-14 15:45:00,
2013-03-14 11:48:00,29.6,13.7,29.97,West,266,9.0,12.0,51,0.00,,,0.00,VWS V14.01,2013-03-14 15:48:00,
2013-03-14 11:53:00,29.7,13.8,29.97,West,263,16.0,18.0,51,0.00,,,0.00,VWS V14.01,2013-03-14 15:53:00,
2013-03-14 11:58:00,29.9,13.5,29.97,WSW,257,22.0,22.0,50,0.00,,,0.00,VWS V14.01,2013-03-14 15:58:00,
2013-03-14 12:00:00,29.7,12.9,29.96,West,268,11.0,22.0,49,0.00,,,0.00,VWS V14.01,2013-03-14 16:00:00,
2013-03-14 12:03:00,29.9,13.1,29.96,WNW,288,12.0,21.0,49,0.00,,,0.00,VWS V14.01,2013-03-14 16:03:00,
2013-03-14 12:08:00,30.3,13.4,29.96,West,278,12.0,24.0,49,0.00,,,0.00,VWS V14.01,2013-03-14 16:08:00,
2013-03-14 12:13:00,30.5,13.2,29.96,WSW,244,6.0,24.0,48,0.00,,,0.00,VWS V14.01,2013-03-14 16:13:00,
2013-03-14 12:15:00,30.9,13.5,29.96,West,263,9.0,24.0,48,0.00,,,0.00,VWS V14.01,2013-03-14 16:15:00,
2013-03-14 12:18:00,31.2,13.3,29.96,West,275,6.0,11.0,47,0.00,,,0.00,VWS V14.01,2013-03-14 16:18:00,
2013-03-14 12:23:00,31.2,12.8,29.96,WSW,247,11.0,25.0,46,0.00,,,0.00,VWS V14.01,2013-03-14 16:23:00,
2013-03-14 12:28:00,31.2,12.8,29.96,WSW,255,8.0,25.0,46,0.00,,,0.00,VWS V14.01,2013-03-14 16:28:00,
2013-03-14 12:30:00,31.7,13.8,29.95,East,83,8.0,25.0,47,0.00,,,0.00,VWS V14.01,2013-03-14 16:30:00,
2013-03-14 12:33:00,31.7,12.8,29.95,West,268,11.0,20.0,45,0.00,,,0.00,VWS V14.01,2013-03-14 16:33:00,
2013-03-14 12:38:00,31.2,12.4,29.95,West,259,8.0,20.0,45,0.00,,,0.00,VWS V14.01,2013-03-14 16:38:00,
2013-03-14 12:43:00,32.0,13.1,29.95,WSW,243,15.0,23.0,45,0.00,,,0.00,VWS V14.01,2013-03-14 16:43:00,
2013-03-14 12:45:00,32.3,12.8,29.95,West,267,9.0,23.0,44,0.00,,,0.00,VWS V14.01,2013-03-14 16:45:00,
2013-03-14 12:48:00,32.4,13.4,29.95,WSW,243,4.0,12.0,45,0.00,,,0.00,VWS V14.01,2013-03-14 16:48:00,
2013-03-14 12:53:00,32.6,13.1,29.95,NW,318,6.0,15.0,44,0.00,,,0.00,VWS V14.01,2013-03-14 16:53:00,
2013-03-14 12:58:00,32.8,14.3,29.95,WSW,247,8.0,15.0,46,0.00,,,0.00,VWS V14.01,2013-03-14 16:58:00,
2013-03-14 13:00:00,32.8,13.3,29.94,West,269,4.0,15.0,44,0.00,,,0.00,VWS V14.01,2013-03-14 17:00:00,
2013-03-14 13:03:00,32.7,13.7,29.94,NW,314,7.0,14.0,45,0.00,,,0.00,VWS V14.01,2013-03-14 17:03:00,
2013-03-14 13:08:00,33.4,13.3,29.94,West,276,10.0,19.0,43,0.00,,,0.00,VWS V14.01,2013-03-14 17:08:00,
2013-03-14 13:13:00,33.1,13.1,29.94,West,275,8.0,19.0,43,0.00,,,0.00,VWS V14.01,2013-03-14 17:13:00,
2013-03-14 13:15:00,33.4,13.3,29.94,West,270,8.0,19.0,43,0.00,,,0.00,VWS V14.01,2013-03-14 17:15:00,
2013-03-14 13:18:00,33.7,13.6,29.94,WNW,294,7.0,14.0,43,0.00,,,0.00,VWS V14.01,2013-03-14 17:18:00,
2013-03-14 13:23:00,33.9,13.2,29.94,West,259,11.0,15.0,42,0.00,,,0.00,VWS V14.01,2013-03-14 17:23:00,
2013-03-14 13:28:00,34.0,12.8,29.94,WSW,246,10.0,15.0,41,0.00,,,0.00,VWS V14.01,2013-03-14 17:28:00,
2013-03-14 13:30:00,33.9,12.1,29.93,WNW,283,9.0,15.0,40,0.00,,,0.00,VWS V14.01,2013-03-14 17:30:00,
2013-03-14 13:33:00,33.7,11.4,29.93,SW,233,10.0,19.0,39,0.00,,,0.00,VWS V14.01,2013-03-14 17:33:00,
2013-03-14 13:38:00,33.7,12.0,29.93,NE,35,4.0,19.0,40,0.00,,,0.00,VWS V14.01,2013-03-14 17:38:00,
2013-03-14 13:43:00,34.5,12.1,29.93,WNW,285,10.0,19.0,39,0.00,,,0.00,VWS V14.01,2013-03-14 17:43:00,
2013-03-14 13:45:00,34.5,11.5,29.92,West,265,9.0,19.0,38,0.00,,,0.00,VWS V14.01,2013-03-14 17:45:00,
2013-03-14 13:48:00,34.5,10.9,29.92,SSE,159,0.0,16.0,37,0.00,,,0.00,VWS V14.01,2013-03-14 17:48:00,
2013-03-14 13:53:00,35.4,12.9,29.92,West,261,9.0,16.0,39,0.00,,,0.00,VWS V14.01,2013-03-14 17:53:00,
2013-03-14 13:58:00,35.9,12.8,29.92,WNW,284,7.0,16.0,38,0.00,,,0.00,VWS V14.01,2013-03-14 17:58:00,
2013-03-14 14:00:00,35.8,11.5,29.92,WSW,252,7.0,18.0,36,0.00,,,0.00,VWS V14.01,2013-03-14 18:00:00,
2013-03-14 14:03:00,35.8,10.8,29.92,WNW,292,5.0,19.0,35,0.00,,,0.00,VWS V14.01,2013-03-14 18:03:00,
2013-03-14 14:08:00,36.2,11.2,29.92,North,355,4.0,19.0,35,0.00,,,0.00,VWS V14.01,2013-03-14 18:08:00,
2013-03-14 14:13:00,36.4,11.4,29.92,West,273,12.0,19.0,35,0.00,,,0.00,VWS V14.01,2013-03-14 18:13:00,
2013-03-14 14:15:00,36.4,10.1,29.91,NNE,33,5.0,20.0,33,0.00,,,0.00,VWS V14.01,2013-03-14 18:15:00,
2013-03-14 14:18:00,36.5,10.1,29.91,North,5,4.0,16.0,33,0.00,,,0.00,VWS V14.01,2013-03-14 18:18:00,
2013-03-14 14:23:00,36.8,10.4,29.91,West,267,9.0,19.0,33,0.00,,,0.00,VWS V14.01,2013-03-14 18:23:00,
2013-03-14 14:28:00,37.2,10.1,29.91,WNW,288,9.0,19.0,32,0.00,,,0.00,VWS V14.01,2013-03-14 18:28:00,
2013-03-14 14:30:00,37.2,10.1,29.90,West,271,10.0,21.0,32,0.00,,,0.00,VWS V14.01,2013-03-14 18:30:00,
2013-03-14 14:33:00,36.9,9.8,29.90,WSW,253,4.0,18.0,32,0.00,,,0.00,VWS V14.01,2013-03-14 18:33:00,
2013-03-14 14:38:00,37.8,10.6,29.90,West,265,13.0,18.0,32,0.00,,,0.00,VWS V14.01,2013-03-14 18:38:00,
2013-03-14 14:43:00,37.9,10.7,29.90,NW,319,9.0,18.0,32,0.00,,,0.00,VWS V14.01,2013-03-14 18:43:00,
2013-03-14 14:45:00,37.8,10.6,29.89,West,264,8.0,19.0,32,0.00,,,0.00,VWS V14.01,2013-03-14 18:45:00,
2013-03-14 14:48:00,37.7,10.5,29.89,WNW,283,9.0,29.0,32,0.00,,,0.00,VWS V14.01,2013-03-14 18:48:00,
2013-03-14 14:53:00,38.1,10.9,29.89,WSW,243,16.0,29.0,32,0.00,,,0.00,VWS V14.01,2013-03-14 18:53:00,
2013-03-14 14:58:00,37.8,9.9,29.89,West,273,11.0,29.0,31,0.00,,,0.00,VWS V14.01,2013-03-14 18:58:00,
2013-03-14 15:00:00,37.8,9.9,29.89,West,277,14.0,29.0,31,0.00,,,0.00,VWS V14.01,2013-03-14 19:00:00,
2013-03-14 15:03:00,37.9,10.0,29.89,West,272,12.0,22.0,31,0.00,,,0.00,VWS V14.01,2013-03-14 19:03:00,
2013-03-14 15:08:00,38.2,9.5,29.89,West,264,15.0,22.0,30,0.00,,,0.00,VWS V14.01,2013-03-14 19:08:00,
2013-03-14 15:13:00,38.2,9.5,29.89,West,259,11.0,22.0,30,0.00,,,0.00,VWS V14.01,2013-03-14 19:13:00,
2013-03-14 15:15:00,38.2,9.5,29.89,WNW,298,4.0,22.0,30,0.00,,,0.00,VWS V14.01,2013-03-14 19:15:00,
2013-03-14 15:18:00,38.2,9.5,29.89,WSW,254,7.0,18.0,30,0.00,,,0.00,VWS V14.01,2013-03-14 19:18:00,
2013-03-14 15:23:00,39.2,11.1,29.89,WNW,287,0.0,18.0,31,0.00,,,0.00,VWS V14.01,2013-03-14 19:23:00,
2013-03-14 15:28:00,39.5,9.9,29.89,WSW,240,16.0,18.0,29,0.00,,,0.00,VWS V14.01,2013-03-14 19:28:00,
2013-03-14 15:30:00,39.1,10.3,29.89,West,260,8.0,23.0,30,0.00,,,0.00,VWS V14.01,2013-03-14 19:30:00,
2013-03-14 15:33:00,38.7,10.7,29.89,WNW,288,5.0,15.0,31,0.00,,,0.00,VWS V14.01,2013-03-14 19:33:00,
2013-03-14 15:38:00,38.2,9.5,29.89,West,277,16.0,21.0,30,0.00,,,0.00,VWS V14.01,2013-03-14 19:38:00,
2013-03-14 15:43:00,38.5,10.5,29.89,WNW,290,6.0,21.0,31,0.00,,,0.00,VWS V14.01,2013-03-14 19:43:00,
2013-03-14 15:45:00,39.1,11.8,29.88,NNW,335,7.0,21.0,32,0.00,,,0.00,VWS V14.01,2013-03-14 19:45:00,
2013-03-14 15:48:00,39.5,10.6,29.88,WNW,299,10.0,22.0,30,0.00,,,0.00,VWS V14.01,2013-03-14 19:48:00,
2013-03-14 15:53:00,39.7,9.3,29.88,SSW,207,5.0,22.0,28,0.00,,,0.00,VWS V14.01,2013-03-14 19:53:00,
2013-03-14 15:58:00,40.0,11.1,29.88,WSW,246,16.0,22.0,30,0.00,,,0.00,VWS V14.01,2013-03-14 19:58:00,
2013-03-14 16:00:00,39.7,10.8,29.89,West,271,18.0,28.0,30,0.00,,,0.00,VWS V14.01,2013-03-14 20:00:00,
2013-03-14 16:03:00,39.2,10.4,29.89,West,270,9.0,19.0,30,0.00,,,0.00,VWS V14.01,2013-03-14 20:03:00,
2013-03-14 16:08:00,38.8,10.0,29.89,WSW,257,13.0,24.0,30,0.00,,,0.00,VWS V14.01,2013-03-14 20:08:00,
2013-03-14 16:13:00,39.0,9.4,29.89,West,271,14.0,24.0,29,0.00,,,0.00,VWS V14.01,2013-03-14 20:13:00,
2013-03-14 16:15:00,38.7,9.2,29.88,West,274,13.0,25.0,29,0.00,,,0.00,VWS V14.01,2013-03-14 20:15:00,
2013-03-14 16:18:00,38.5,9.0,29.88,West,261,13.0,27.0,29,0.00,,,0.00,VWS V14.01,2013-03-14 20:18:00,
2013-03-14 16:23:00,38.8,9.3,29.88,SW,235,6.0,27.0,29,0.00,,,0.00,VWS V14.01,2013-03-14 20:23:00,
2013-03-14 16:28:00,39.1,9.5,29.88,West,265,9.0,27.0,29,0.00,,,0.00,VWS V14.01,2013-03-14 20:28:00,
2013-03-14 16:30:00,39.4,9.8,29.88,West,265,14.0,27.0,29,0.00,,,0.00,VWS V14.01,2013-03-14 20:30:00,
2013-03-14 16:33:00,39.4,9.0,29.88,NW,315,11.0,21.0,28,0.00,,,0.00,VWS V14.01,2013-03-14 20:33:00,
2013-03-14 16:38:00,39.5,9.9,29.88,WSW,243,10.0,21.0,29,0.00,,,0.00,VWS V14.01,2013-03-14 20:38:00,
2013-03-14 16:43:00,39.4,9.0,29.88,NW,317,8.0,22.0,28,0.00,,,0.00,VWS V14.01,2013-03-14 20:43:00,
2013-03-14 16:45:00,39.4,9.0,29.88,WSW,250,6.0,22.0,28,0.00,,,0.00,VWS V14.01,2013-03-14 20:45:00,
2013-03-14 16:48:00,39.4,9.8,29.88,WSW,257,18.0,24.0,29,0.00,,,0.00,VWS V14.01,2013-03-14 20:48:00,
2013-03-14 16:53:00,39.2,8.9,29.88,West,261,6.0,26.0,28,0.00,,,0.00,VWS V14.01,2013-03-14 20:53:00,
2013-03-14 16:58:00,39.4,9.8,29.88,WNW,290,15.0,26.0,29,0.00,,,0.00,VWS V14.01,2013-03-14 20:58:00,
2013-03-14 17:00:00,39.5,9.9,29.89,WNW,288,6.0,26.0,29,0.00,,,0.00,VWS V14.01,2013-03-14 21:00:00,
2013-03-14 17:03:00,39.7,9.3,29.89,West,263,9.0,19.0,28,0.00,,,0.00,VWS V14.01,2013-03-14 21:03:00,
2013-03-14 17:08:00,39.4,9.0,29.89,WSW,252,2.0,19.0,28,0.00,,,0.00,VWS V14.01,2013-03-14 21:08:00,
2013-03-14 17:13:00,39.2,8.9,29.89,WSW,255,8.0,20.0,28,0.00,,,0.00,VWS V14.01,2013-03-14 21:13:00,
2013-03-14 17:15:00,39.2,8.9,29.89,North,5,9.0,20.0,28,0.00,,,0.00,VWS V14.01,2013-03-14 21:15:00,
2013-03-14 17:18:00,39.2,8.0,29.89,West,268,13.0,15.0,27,0.00,,,0.00,VWS V14.01,2013-03-14 21:18:00,
2013-03-14 17:23:00,39.2,8.0,29.89,WSW,248,12.0,20.0,27,0.00,,,0.00,VWS V14.01,2013-03-14 21:23:00,
2013-03-14 17:28:00,39.1,8.8,29.89,West,271,4.0,20.0,28,0.00,,,0.00,VWS V14.01,2013-03-14 21:28:00,
2013-03-14 17:30:00,39.1,7.9,29.89,WSW,244,11.0,20.0,27,0.00,,,0.00,VWS V14.01,2013-03-14 21:30:00,
2013-03-14 17:33:00,38.8,7.7,29.89,WSW,240,12.0,14.0,27,0.00,,,0.00,VWS V14.01,2013-03-14 21:33:00,
2013-03-14 17:38:00,38.7,7.6,29.89,North,350,4.0,18.0,27,0.00,,,0.00,VWS V14.01,2013-03-14 21:38:00,
2013-03-14 17:43:00,38.7,7.6,29.89,WSW,242,12.0,18.0,27,0.00,,,0.00,VWS V14.01,2013-03-14 21:43:00,
2013-03-14 17:45:00,38.5,8.2,29.89,NNE,17,3.0,18.0,28,0.00,,,0.00,VWS V14.01,2013-03-14 21:45:00,
2013-03-14 17:48:00,38.5,8.2,29.89,NNW,334,11.0,11.0,28,0.00,,,0.00,VWS V14.01,2013-03-14 21:48:00,
2013-03-14 17:53:00,38.5,8.2,29.89,WSW,242,14.0,22.0,28,0.00,,,0.00,VWS V14.01,2013-03-14 21:53:00,
2013-03-14 17:58:00,38.2,8.0,29.89,West,280,4.0,24.0,28,0.00,,,0.00,VWS V14.01,2013-03-14 21:58:00,
2013-03-14 18:00:00,38.4,8.9,29.89,West,279,8.0,24.0,29,0.00,,,0.00,VWS V14.01,2013-03-14 22:00:00,
2013-03-14 18:03:00,38.5,9.0,29.89,West,265,5.0,11.0,29,0.00,,,0.00,VWS V14.01,2013-03-14 22:03:00,
2013-03-14 18:08:00,38.2,8.0,29.89,West,266,13.0,19.0,28,0.00,,,0.00,VWS V14.01,2013-03-14 22:08:00,
2013-03-14 18:13:00,37.7,6.8,29.89,West,261,12.0,25.0,27,0.00,,,0.00,VWS V14.01,2013-03-14 22:13:00,
2013-03-14 18:15:00,37.5,6.6,29.90,WNW,285,15.0,25.0,27,0.00,,,0.00,VWS V14.01,2013-03-14 22:15:00,
2013-03-14 18:18:00,37.4,7.3,29.90,SW,215,11.0,24.0,28,0.00,,,0.00,VWS V14.01,2013-03-14 22:18:00,
2013-03-14 18:23:00,37.4,7.3,29.90,West,265,23.0,24.0,28,0.00,,,0.00,VWS V14.01,2013-03-14 22:23:00,
2013-03-14 18:28:00,37.2,6.3,29.90,WSW,241,5.0,24.0,27,0.00,,,0.00,VWS V14.01,2013-03-14 22:28:00,
2013-03-14 18:30:00,37.1,6.2,29.91,WSW,243,9.0,24.0,27,0.00,,,0.00,VWS V14.01,2013-03-14 22:30:00,
2013-03-14 18:33:00,36.9,6.1,29.91,WSW,246,12.0,14.0,27,0.00,,,0.00,VWS V14.01,2013-03-14 22:33:00,
2013-03-14 18:38:00,36.9,6.1,29.91,West,262,8.0,14.0,27,0.00,,,0.00,VWS V14.01,2013-03-14 22:38:00,
2013-03-14 18:43:00,36.8,6.8,29.91,WSW,248,9.0,14.0,28,0.00,,,0.00,VWS V14.01,2013-03-14 22:43:00,
2013-03-14 18:45:00,36.7,6.7,29.91,WSW,250,6.0,14.0,28,0.00,,,0.00,VWS V14.01,2013-03-14 22:45:00,
2013-03-14 18:48:00,36.5,6.5,29.91,NW,311,7.0,24.0,28,0.00,,,0.00,VWS V14.01,2013-03-14 22:48:00,
2013-03-14 18:53:00,36.4,5.6,29.91,WSW,243,15.0,24.0,27,0.00,,,0.00,VWS V14.01,2013-03-14 22:53:00,
2013-03-14 18:58:00,36.1,6.2,29.91,West,279,7.0,24.0,28,0.00,,,0.00,VWS V14.01,2013-03-14 22:58:00,
2013-03-14 19:00:00,36.1,6.2,29.92,WNW,288,7.0,24.0,28,0.00,,,0.00,VWS V14.01,2013-03-14 23:00:00,
2013-03-14 19:03:00,35.9,6.8,29.92,WSW,251,10.0,14.0,29,0.00,,,0.00,VWS V14.01,2013-03-14 23:03:00,
2013-03-14 19:08:00,35.8,5.9,29.92,WNW,293,10.0,22.0,28,0.00,,,0.00,VWS V14.01,2013-03-14 23:08:00,
2013-03-14 19:13:00,35.7,8.1,29.92,SW,224,8.0,22.0,31,0.00,,,0.00,VWS V14.01,2013-03-14 23:13:00,
2013-03-14 19:15:00,35.5,6.4,29.92,West,268,13.0,24.0,29,0.00,,,0.00,VWS V14.01,2013-03-14 23:15:00,
2013-03-14 19:18:00,35.5,6.4,29.92,West,265,16.0,21.0,29,0.00,,,0.00,VWS V14.01,2013-03-14 23:18:00,
2013-03-14 19:23:00,35.4,6.3,29.92,West,276,11.0,21.0,29,0.00,,,0.00,VWS V14.01,2013-03-14 23:23:00,
2013-03-14 19:28:00,35.2,6.9,29.92,West,273,9.0,21.0,30,0.00,,,0.00,VWS V14.01,2013-03-14 23:28:00,
2013-03-14 19:30:00,35.1,6.8,29.93,West,275,8.0,21.0,30,0.00,,,0.00,VWS V14.01,2013-03-14 23:30:00,
2013-03-14 19:33:00,35.1,6.8,29.93,West,268,10.0,12.0,30,0.00,,,0.00,VWS V14.01,2013-03-14 23:33:00,
2013-03-14 19:38:00,34.9,6.6,29.93,West,270,10.0,12.0,30,0.00,,,0.00,VWS V14.01,2013-03-14 23:38:00,
2013-03-14 19:43:00,34.8,5.8,29.93,SW,236,6.0,29.0,29,0.00,,,0.00,VWS V14.01,2013-03-14 23:43:00,
2013-03-14 19:45:00,34.8,5.8,29.93,West,261,7.0,29.0,29,0.00,,,0.00,VWS V14.01,2013-03-14 23:45:00,
2013-03-14 19:48:00,34.8,6.5,29.93,West,266,8.0,18.0,30,0.00,,,0.00,VWS V14.01,2013-03-14 23:48:00,
2013-03-14 19:53:00,34.6,6.4,29.93,West,273,10.0,19.0,30,0.00,,,0.00,VWS V14.01,2013-03-14 23:53:00,
2013-03-14 19:58:00,34.5,6.3,29.93,West,265,13.0,21.0,30,0.00,,,0.00,VWS V14.01,2013-03-14 23:58:00,
2013-03-14 20:00:00,34.5,6.3,29.94,West,275,5.0,21.0,30,0.00,,,0.00,VWS V14.01,2013-03-15 00:00:00,
2013-03-14 20:03:00,34.3,6.1,29.94,West,269,4.0,15.0,30,0.00,,,0.00,VWS V14.01,2013-03-15 00:03:00,
2013-03-14 20:08:00,34.2,6.0,29.94,WNW,298,8.0,15.0,30,0.00,,,0.00,VWS V14.01,2013-03-15 00:08:00,
2013-03-14 20:13:00,34.2,6.7,29.94,SSW,206,9.0,16.0,31,0.00,,,0.00,VWS V14.01,2013-03-15 00:13:00,
2013-03-14 20:15:00,34.0,6.6,29.94,West,260,4.0,16.0,31,0.00,,,0.00,VWS V14.01,2013-03-15 00:15:00,
2013-03-14 20:18:00,34.0,7.3,29.94,WNW,292,7.0,18.0,32,0.00,,,0.00,VWS V14.01,2013-03-15 00:18:00,
2013-03-14 20:23:00,33.9,7.2,29.94,West,270,8.0,18.0,32,0.00,,,0.00,VWS V14.01,2013-03-15 00:23:00,
2013-03-14 20:28:00,33.9,7.2,29.94,West,262,6.0,18.0,32,0.00,,,0.00,VWS V14.01,2013-03-15 00:28:00,
2013-03-14 20:30:00,33.7,7.0,29.95,West,271,12.0,18.0,32,0.00,,,0.00,VWS V14.01,2013-03-15 00:30:00,
2013-03-14 20:33:00,33.7,7.0,29.95,West,266,8.0,12.0,32,0.00,,,0.00,VWS V14.01,2013-03-15 00:33:00,
2013-03-14 20:38:00,33.6,6.9,29.95,SW,230,6.0,18.0,32,0.00,,,0.00,VWS V14.01,2013-03-15 00:38:00,
2013-03-14 20:43:00,33.6,6.9,29.95,NNE,19,5.0,18.0,32,0.00,,,0.00,VWS V14.01,2013-03-15 00:43:00,
2013-03-14 20:45:00,33.6,6.9,29.96,SW,234,4.0,18.0,32,0.00,,,0.00,VWS V14.01,2013-03-15 00:45:00,
2013-03-14 20:48:00,33.6,6.9,29.96,NW,322,0.0,14.0,32,0.00,,,0.00,VWS V14.01,2013-03-15 00:48:00,
2013-03-14 20:53:00,33.4,6.0,29.96,West,259,9.0,14.0,31,0.00,,,0.00,VWS V14.01,2013-03-15 00:53:00,
2013-03-14 20:58:00,33.3,5.9,29.96,West,264,7.0,14.0,31,0.00,,,0.00,VWS V14.01,2013-03-15 00:58:00,
2013-03-14 21:00:00,33.3,6.6,29.96,West,259,1.0,14.0,32,0.00,,,0.00,VWS V14.01,2013-03-15 01:00:00,
2013-03-14 21:03:00,33.1,6.5,29.96,WSW,251,4.0,7.0,32,0.00,,,0.00,VWS V14.01,2013-03-15 01:03:00,
2013-03-14 21:08:00,33.0,6.4,29.96,WSW,252,13.0,20.0,32,0.00,,,0.00,VWS V14.01,2013-03-15 01:08:00,
2013-03-14 21:13:00,33.0,6.4,29.96,West,264,8.0,20.0,32,0.00,,,0.00,VWS V14.01,2013-03-15 01:13:00,
2013-03-14 21:15:00,33.0,5.7,29.96,West,281,10.0,20.0,31,0.00,,,0.00,VWS V14.01,2013-03-15 01:15:00,
2013-03-14 21:18:00,33.0,6.4,29.96,West,270,8.0,15.0,32,0.00,,,0.00,VWS V14.01,2013-03-15 01:18:00,
2013-03-14 21:23:00,33.0,6.4,29.96,West,259,20.0,20.0,32,0.00,,,0.00,VWS V14.01,2013-03-15 01:23:00,
2013-03-14 21:28:00,32.8,6.2,29.96,West,278,12.0,20.0,32,0.00,,,0.00,VWS V14.01,2013-03-15 01:28:00,
2013-03-14 21:30:00,32.8,6.2,29.96,WSW,252,6.0,20.0,32,0.00,,,0.00,VWS V14.01,2013-03-15 01:30:00,
2013-03-14 21:33:00,32.8,6.2,29.96,SW,230,10.0,20.0,32,0.00,,,0.00,VWS V14.01,2013-03-15 01:33:00,
2013-03-14 21:38:00,32.8,6.2,29.96,WSW,246,11.0,20.0,32,0.00,,,0.00,VWS V14.01,2013-03-15 01:38:00,
2013-03-14 21:43:00,32.7,6.8,29.96,WSW,252,7.0,20.0,33,0.00,,,0.00,VWS V14.01,2013-03-15 01:43:00,
2013-03-14 21:45:00,32.7,6.8,29.97,West,274,8.0,20.0,33,0.00,,,0.00,VWS V14.01,2013-03-15 01:45:00,
2013-03-14 21:48:00,32.6,6.7,29.97,West,267,10.0,14.0,33,0.00,,,0.00,VWS V14.01,2013-03-15 01:48:00,
2013-03-14 21:53:00,32.6,6.7,29.97,West,260,0.0,15.0,33,0.00,,,0.00,VWS V14.01,2013-03-15 01:53:00,
2013-03-14 21:58:00,32.4,7.2,29.97,WNW,288,4.0,15.0,34,0.00,,,0.00,VWS V14.01,2013-03-15 01:58:00,
2013-03-14 22:00:00,32.3,7.1,29.97,West,275,5.0,15.0,34,0.00,,,0.00,VWS V14.01,2013-03-15 02:00:00,
2013-03-14 22:03:00,32.1,7.6,29.97,West,272,4.0,8.0,35,0.00,,,0.00,VWS V14.01,2013-03-15 02:03:00,
2013-03-14 22:08:00,32.0,7.5,29.97,WSW,237,7.0,14.0,35,0.00,,,0.00,VWS V14.01,2013-03-15 02:08:00,
2013-03-14 22:13:00,32.0,7.5,29.97,NW,318,12.0,16.0,35,0.00,,,0.00,VWS V14.01,2013-03-15 02:13:00,
2013-03-14 22:15:00,32.0,7.5,29.98,SW,235,10.0,21.0,35,0.00,,,0.00,VWS V14.01,2013-03-15 02:15:00,
2013-03-14 22:18:00,32.0,7.5,29.98,West,270,22.0,22.0,35,0.00,,,0.00,VWS V14.01,2013-03-15 02:18:00,
2013-03-14 22:23:00,32.0,8.1,29.98,WSW,246,7.0,23.0,36,0.00,,,0.00,VWS V14.01,2013-03-15 02:23:00,
2013-03-14 22:28:00,32.0,8.7,29.98,WSW,246,11.0,23.0,37,0.00,,,0.00,VWS V14.01,2013-03-15 02:28:00,
2013-03-14 22:30:00,31.8,8.5,29.98,WNW,294,5.0,23.0,37,0.00,,,0.00,VWS V14.01,2013-03-15 02:30:00,
2013-03-14 22:33:00,31.8,9.1,29.98,West,271,10.0,16.0,38,0.00,,,0.00,VWS V14.01,2013-03-15 02:33:00,
2013-03-14 22:38:00,31.7,9.0,29.98,WSW,250,10.0,19.0,38,0.00,,,0.00,VWS V14.01,2013-03-15 02:38:00,
2013-03-14 22:43:00,31.7,9.6,29.98,WNW,295,2.0,19.0,39,0.00,,,0.00,VWS V14.01,2013-03-15 02:43:00,
2013-03-14 22:45:00,31.5,9.4,29.98,NW,322,0.0,19.0,39,0.00,,,0.00,VWS V14.01,2013-03-15 02:45:00,
2013-03-14 22:48:00,31.5,9.4,29.98,WSW,246,5.0,8.0,39,0.00,,,0.00,VWS V14.01,2013-03-15 02:48:00,
2013-03-14 22:53:00,31.4,9.3,29.98,WNW,293,2.0,14.0,39,0.00,,,0.00,VWS V14.01,2013-03-15 02:53:00,
2013-03-14 22:58:00,31.4,9.9,29.98,West,266,8.0,20.0,40,0.00,,,0.00,VWS V14.01,2013-03-15 02:58:00,
2013-03-14 23:00:00,31.4,9.9,29.99,WSW,258,7.0,20.0,40,0.00,,,0.00,VWS V14.01,2013-03-15 03:00:00,
2013-03-14 23:03:00,31.4,9.9,29.99,WNW,298,8.0,22.0,40,0.00,,,0.00,VWS V14.01,2013-03-15 03:03:00,
2013-03-14 23:08:00,31.4,10.4,29.99,North,355,15.0,22.0,41,0.00,,,0.00,VWS V14.01,2013-03-15 03:08:00,
2013-03-14 23:13:00,31.2,10.8,29.99,West,271,9.0,22.0,42,0.00,,,0.00,VWS V14.01,2013-03-15 03:13:00,
2013-03-14 23:15:00,31.2,10.8,29.99,WSW,253,7.0,22.0,42,0.00,,,0.00,VWS V14.01,2013-03-15 03:15:00,
2013-03-14 23:18:00,31.2,10.8,29.99,WSW,257,7.0,13.0,42,0.00,,,0.00,VWS V14.01,2013-03-15 03:18:00,
2013-03-14 23:23:00,31.1,10.7,29.99,WSW,242,5.0,15.0,42,0.00,,,0.00,VWS V14.01,2013-03-15 03:23:00,
2013-03-14 23:28:00,31.1,11.2,29.99,West,260,6.0,16.0,43,0.00,,,0.00,VWS V14.01,2013-03-15 03:28:00,
2013-03-14 23:30:00,30.9,11.1,29.99,WSW,254,0.0,16.0,43,0.00,,,0.00,VWS V14.01,2013-03-15 03:30:00,
2013-03-14 23:33:00,30.9,11.6,29.99,WSW,245,4.0,10.0,44,0.00,,,0.00,VWS V14.01,2013-03-15 03:33:00,
2013-03-14 23:38:00,30.8,11.5,29.99,SE,128,0.0,12.0,44,0.00,,,0.00,VWS V14.01,2013-03-15 03:38:00,
2013-03-14 23:43:00,30.8,11.5,29.99,WNW,286,4.0,12.0,44,0.00,,,0.00,VWS V14.01,2013-03-15 03:43:00,
2013-03-14 23:45:00,30.6,11.3,29.99,WNW,284,10.0,12.0,44,0.00,,,0.00,VWS V14.01,2013-03-15 03:45:00,
2013-03-14 23:48:00,30.6,11.3,29.99,West,263,2.0,10.0,44,0.00,,,0.00,VWS V14.01,2013-03-15 03:48:00,
2013-03-14 23:53:00,30.6,11.3,29.99,SSW,205,3.0,16.0,44,0.00,,,0.00,VWS V14.01,2013-03-15 03:53:00,
2013-03-14 23:58:00,30.6,11.3,29.99,WSW,241,8.0,19.0,44,0.00,,,0.00,VWS V14.01,2013-03-15 03:58:00,